createdAt,value
2023-01-03T00:01:52.403Z,98553.91
2023-01-03T00:04:22.209Z,98552.56
2023-01-03T00:06:52.551Z,98552.14
2023-01-03T00:09:23.598Z,98554.80
2023-01-03T00:12:12.447Z,98554.87
2023-01-03T00:14:43.946Z,98556.81
2023-01-03T00:17:13.014Z,98562.52
2023-01-03T00:19:45.060Z,98566.45
2023-01-03T00:22:15.981Z,98566.56
2023-01-03T00:24:45.745Z,98568.50
2023-01-03T00:27:15.336Z,98570.38
2023-01-03T00:29:43.484Z,98565.89
2023-01-03T00:32:11.978Z,98571.56
2023-01-03T00:34:39.958Z,98572.17
2023-01-03T00:37:07.950Z,98573.59
2023-01-03T00:39:36.108Z,98574.00
2023-01-03T00:42:04.284Z,98577.02
2023-01-03T00:44:32.906Z,98577.71
2023-01-03T00:47:01.720Z,98577.81
2023-01-03T00:49:29.855Z,98577.09
2023-01-03T00:51:58.476Z,98573.92
2023-01-03T00:54:26.588Z,98569.78
2023-01-03T00:56:54.902Z,98569.50
2023-01-03T00:59:23.648Z,98569.31
2023-01-03T01:01:54.704Z,98571.11
2023-01-03T01:04:26.518Z,98571.31
2023-01-03T01:06:58.670Z,98572.92
2023-01-03T01:09:29.222Z,98570.09
2023-01-03T01:11:57.918Z,98567.14
2023-01-03T01:14:28.777Z,98567.35
2023-01-03T01:17:02.474Z,98569.46
2023-01-03T01:19:37.320Z,98571.12
2023-01-03T01:22:06.337Z,98573.17
2023-01-03T01:24:35.127Z,98565.64
2023-01-03T01:27:03.824Z,98563.20
2023-01-03T01:29:31.886Z,98563.58
2023-01-03T01:32:00.011Z,98561.39
2023-01-03T01:34:27.956Z,98560.21
2023-01-03T01:36:56.677Z,98559.46
2023-01-03T01:39:27.600Z,98557.86
2023-01-03T01:42:23.163Z,98551.27
2023-01-03T01:45:00.764Z,98550.70
2023-01-03T01:47:50.657Z,98552.36
2023-01-03T01:50:33.999Z,98555.17
2023-01-03T01:53:04.735Z,98556.30
2023-01-03T01:55:45.444Z,98557.88
2023-01-03T01:58:16.009Z,98559.13
2023-01-03T02:00:44.962Z,98565.39
2023-01-03T02:03:13.167Z,98568.33
2023-01-03T02:05:51.789Z,98570.08
2023-01-03T02:08:20.307Z,98569.27
2023-01-03T02:11:07.000Z,98562.03
2023-01-03T02:13:54.835Z,98567.40
2023-01-03T02:16:52.247Z,98569.35
2023-01-03T02:20:02.622Z,98571.02
2023-01-03T02:22:51.396Z,98573.64
2023-01-03T02:25:33.465Z,98571.77
2023-01-03T02:28:07.423Z,98571.84
2023-01-03T02:30:48.762Z,98566.73
2023-01-03T02:33:41.746Z,98565.67
2023-01-03T02:36:36.012Z,98568.84
2023-01-03T02:39:13.345Z,98570.95
2023-01-03T02:42:15.293Z,98571.33
2023-01-03T02:45:08.416Z,98575.58
2023-01-03T02:47:53.392Z,98578.48
2023-01-03T02:50:27.352Z,98580.15
2023-01-03T02:53:00.951Z,98579.06
2023-01-03T02:55:32.979Z,98580.27
2023-01-03T02:58:09.567Z,98576.67
2023-01-03T03:00:43.054Z,98577.13
2023-01-03T03:03:14.608Z,98573.52
2023-01-03T03:05:50.379Z,98573.21
2023-01-03T03:08:19.301Z,98570.19
2023-01-03T03:11:06.618Z,98566.34
2023-01-03T03:13:45.756Z,98564.14
2023-01-03T03:16:48.918Z,98562.31
2023-01-03T03:19:41.802Z,98563.64
2023-01-03T03:22:50.915Z,98567.66
2023-01-03T03:25:28.632Z,98568.59
2023-01-03T03:28:22.540Z,98574.23
2023-01-03T03:30:54.917Z,98578.79
2023-01-03T03:33:26.405Z,98578.11
2023-01-03T03:36:03.890Z,98587.60
2023-01-03T03:38:42.640Z,98590.87
2023-01-03T03:41:41.752Z,98588.90
2023-01-03T03:44:51.707Z,98591.36
2023-01-03T03:47:25.974Z,98590.13
2023-01-03T03:49:59.175Z,98582.77
2023-01-03T03:52:30.244Z,98578.09
2023-01-03T03:55:13.785Z,98575.66
2023-01-03T03:58:01.137Z,98583.00
2023-01-03T04:00:35.033Z,98584.33
2023-01-03T04:03:07.072Z,98581.64
2023-01-03T04:05:40.102Z,98581.04
2023-01-03T04:08:08.604Z,98579.16
2023-01-03T04:10:38.419Z,98583.89
2023-01-03T04:13:06.985Z,98584.27
2023-01-03T04:15:35.066Z,98586.48
2023-01-03T04:18:03.381Z,98581.63
2023-01-03T04:20:31.483Z,98581.85
2023-01-03T04:23:00.798Z,98585.33
2023-01-03T04:25:28.896Z,98587.31
2023-01-03T04:27:58.188Z,98587.10
2023-01-03T04:30:26.334Z,98589.80
2023-01-03T04:32:54.343Z,98595.91
2023-01-03T04:35:22.391Z,98595.95
2023-01-03T04:37:50.609Z,98593.80
2023-01-03T04:40:18.713Z,98593.52
2023-01-03T04:43:05.287Z,98593.78
2023-01-03T04:45:33.553Z,98595.27
2023-01-03T04:48:02.636Z,98597.95
2023-01-03T04:50:32.022Z,98597.63
2023-01-03T04:53:00.304Z,98602.12
2023-01-03T04:55:28.703Z,98604.91
2023-01-03T04:57:56.813Z,98605.89
2023-01-03T05:00:24.769Z,98608.87
2023-01-03T05:02:53.058Z,98612.63
2023-01-03T05:05:21.242Z,98614.36
2023-01-03T05:07:49.393Z,98620.24
2023-01-03T05:10:17.847Z,98623.35
2023-01-03T05:12:59.971Z,98624.92
2023-01-03T05:15:35.272Z,98620.73
2023-01-03T05:18:04.352Z,98621.65
2023-01-03T05:20:51.091Z,98622.37
2023-01-03T05:23:37.827Z,98623.48
2023-01-03T05:26:18.642Z,98627.51
2023-01-03T05:28:50.953Z,98626.38
2023-01-03T05:31:19.525Z,98626.02
2023-01-03T05:33:47.621Z,98626.36
2023-01-03T05:36:16.776Z,98624.61
2023-01-03T05:38:44.939Z,98628.41
2023-01-03T05:41:13.214Z,98626.41
2023-01-03T05:43:41.588Z,98633.67
2023-01-03T05:46:09.671Z,98638.97
2023-01-03T05:48:37.845Z,98636.28
2023-01-03T05:51:05.853Z,98633.52
2023-01-03T05:53:33.821Z,98634.93
2023-01-03T05:56:07.288Z,98628.89
2023-01-03T05:58:35.531Z,98631.02
2023-01-03T06:01:10.433Z,98629.05
2023-01-03T06:03:38.869Z,98635.73
2023-01-03T06:06:09.969Z,98640.45
2023-01-03T06:08:37.956Z,98640.42
2023-01-03T06:11:08.045Z,98640.41
2023-01-03T06:13:36.291Z,98636.48
2023-01-03T06:16:28.991Z,98634.89
2023-01-03T06:18:57.517Z,98633.64
2023-01-03T06:21:25.586Z,98634.13
2023-01-03T06:23:54.105Z,98637.02
2023-01-03T06:26:24.237Z,98645.77
2023-01-03T06:28:52.768Z,98648.77
2023-01-03T06:31:21.093Z,98651.28
2023-01-03T06:33:49.376Z,98650.84
2023-01-03T06:36:20.757Z,98651.92
2023-01-03T06:38:49.083Z,98651.83
2023-01-03T06:41:17.805Z,98653.51
2023-01-03T06:43:46.692Z,98654.16
2023-01-03T06:46:33.616Z,98661.27
2023-01-03T06:49:20.750Z,98661.70
2023-01-03T06:52:09.395Z,98664.98
2023-01-03T06:54:38.753Z,98672.38
2023-01-03T06:57:06.844Z,98670.38
2023-01-03T06:59:34.741Z,98672.56
2023-01-03T07:02:03.161Z,98674.03
2023-01-03T07:04:31.540Z,98677.98
2023-01-03T07:06:59.788Z,98681.20
2023-01-03T07:09:28.338Z,98686.96
2023-01-03T07:11:56.578Z,98686.56
2023-01-03T07:14:24.890Z,98685.68
2023-01-03T07:16:52.962Z,98686.77
2023-01-03T07:19:21.031Z,98692.44
2023-01-03T07:21:49.246Z,98692.30
2023-01-03T07:24:20.358Z,98696.52
2023-01-03T07:26:48.779Z,98696.88
2023-01-03T07:29:16.943Z,98695.64
2023-01-03T07:31:45.453Z,98695.09
2023-01-03T07:34:13.689Z,98696.73
2023-01-03T07:36:41.821Z,98692.80
2023-01-03T07:39:09.883Z,98691.50
2023-01-03T07:41:56.368Z,98693.45
2023-01-03T07:44:24.717Z,98692.52
2023-01-03T07:46:52.986Z,98687.09
2023-01-03T07:49:21.100Z,98691.52
2023-01-03T07:51:49.366Z,98688.45
2023-01-03T07:54:17.580Z,98693.80
2023-01-03T07:56:45.610Z,98695.58
2023-01-03T07:59:13.785Z,98686.64
2023-01-03T08:01:42.099Z,98683.89
2023-01-03T08:04:10.565Z,98684.83
2023-01-03T08:06:39.024Z,98690.95
2023-01-03T08:09:26.136Z,98693.59
2023-01-03T08:12:13.056Z,98693.25
2023-01-03T08:14:41.253Z,98692.88
2023-01-03T08:17:09.623Z,98689.79
2023-01-03T08:19:41.833Z,98688.30
2023-01-03T08:22:13.619Z,98690.66
2023-01-03T08:24:42.121Z,98687.18
2023-01-03T08:27:10.206Z,98687.80
2023-01-03T08:29:38.412Z,98693.83
2023-01-03T08:32:07.180Z,98692.38
2023-01-03T08:34:38.703Z,98689.93
2023-01-03T08:37:10.551Z,98684.17
2023-01-03T08:39:50.666Z,98682.95
2023-01-03T08:42:23.561Z,98685.92
2023-01-03T08:44:58.235Z,98682.55
2023-01-03T08:47:27.035Z,98681.80
2023-01-03T08:49:57.348Z,98685.38
2023-01-03T08:52:30.188Z,98686.02
2023-01-03T08:55:01.659Z,98685.72
2023-01-03T08:57:30.096Z,98690.56
2023-01-03T08:59:58.468Z,98689.58
2023-01-03T09:02:26.927Z,98683.34
2023-01-03T09:04:56.595Z,98682.08
2023-01-03T09:07:25.032Z,98681.05
2023-01-03T09:09:53.359Z,98679.72
2023-01-03T09:12:21.572Z,98679.77
2023-01-03T09:14:49.755Z,98680.67
2023-01-03T09:17:18.196Z,98679.95
2023-01-03T09:19:46.466Z,98680.64
2023-01-03T09:22:17.356Z,98677.72
2023-01-03T09:24:45.777Z,98675.60
2023-01-03T09:27:14.248Z,98675.41
2023-01-03T09:29:42.836Z,98667.40
2023-01-03T09:32:12.024Z,98665.02
2023-01-03T09:34:40.290Z,98666.23
2023-01-03T09:37:08.657Z,98661.32
2023-01-03T09:39:37.167Z,98662.75
2023-01-03T09:42:24.694Z,98660.27
2023-01-03T09:44:54.303Z,98657.35
2023-01-03T09:47:26.062Z,98654.83
2023-01-03T09:50:27.841Z,98651.23
2023-01-03T09:53:04.213Z,98656.59
2023-01-03T09:56:25.156Z,98650.52
2023-01-03T09:59:24.554Z,98645.70
2023-01-03T10:02:39.141Z,98645.48
2023-01-03T10:05:54.972Z,98644.81
2023-01-03T10:08:32.369Z,98638.25
2023-01-03T10:11:09.162Z,98636.50
2023-01-03T10:13:56.955Z,98635.30
2023-01-03T10:16:53.383Z,98631.23
2023-01-03T10:19:27.825Z,98626.61
2023-01-03T10:22:19.146Z,98626.10
2023-01-03T10:24:56.009Z,98627.04
2023-01-03T10:27:27.978Z,98625.58
2023-01-03T10:30:00.681Z,98620.77
2023-01-03T10:32:52.126Z,98617.75
2023-01-03T10:35:22.133Z,98616.42
2023-01-03T10:37:54.831Z,98615.01
2023-01-03T10:40:52.140Z,98616.16
2023-01-03T10:43:44.237Z,98613.10
2023-01-03T10:46:17.975Z,98607.98
2023-01-03T10:51:57.510Z,98607.12
2023-01-03T10:54:49.232Z,98602.53
2023-01-03T10:57:53.050Z,98598.70
2023-01-03T11:00:31.152Z,98591.46
2023-01-03T11:03:25.822Z,98581.61
2023-01-03T11:06:00.114Z,98581.56
2023-01-03T11:08:59.644Z,98579.73
2023-01-03T11:11:41.628Z,98576.95
2023-01-03T11:14:26.303Z,98575.00
2023-01-03T11:17:05.618Z,98574.79
2023-01-03T11:19:34.966Z,98571.80
2023-01-03T11:22:37.630Z,98563.66
2023-01-03T11:25:18.561Z,98562.03
2023-01-03T11:28:07.838Z,98562.35
2023-01-03T11:31:11.345Z,98554.77
2023-01-03T11:33:58.923Z,98552.65
2023-01-03T11:36:33.174Z,98545.48
2023-01-03T11:39:24.712Z,98542.45
2023-01-03T11:42:38.023Z,98542.55
2023-01-03T11:45:48.141Z,98542.95
2023-01-03T11:48:23.349Z,98536.75
2023-01-03T11:51:17.892Z,98536.52
2023-01-03T11:53:52.121Z,98541.29
2023-01-03T11:56:31.162Z,98538.44
2023-01-03T11:59:37.485Z,98534.16
2023-01-03T12:02:43.035Z,98536.33
2023-01-03T12:05:43.563Z,98536.09
2023-01-03T12:08:11.778Z,98539.39
2023-01-03T12:11:21.746Z,98539.70
2023-01-03T12:13:53.446Z,98540.25
2023-01-03T12:16:30.538Z,98537.62
2023-01-03T12:19:22.957Z,98535.73
2023-01-03T12:21:57.351Z,98536.95
2023-01-03T12:24:28.747Z,98538.01
2023-01-03T12:27:04.804Z,98538.91
2023-01-03T12:30:00.266Z,98540.16
2023-01-03T12:32:52.824Z,98539.52
2023-01-03T12:35:42.912Z,98538.02
2023-01-03T12:38:12.470Z,98536.52
2023-01-03T12:40:54.562Z,98526.99
2023-01-03T12:43:33.276Z,98524.43
2023-01-03T12:46:17.274Z,98520.42
2023-01-03T12:49:22.716Z,98523.25
2023-01-03T12:51:51.002Z,98520.84
2023-01-03T12:54:47.565Z,98518.83
2023-01-03T12:57:33.801Z,98518.02
2023-01-03T13:00:18.117Z,98520.20
2023-01-03T13:02:53.020Z,98530.39
2023-01-03T13:05:45.795Z,98539.96
2023-01-03T13:08:23.443Z,98540.41
2023-01-03T13:10:55.276Z,98537.05
2023-01-03T13:13:24.144Z,98534.91
2023-01-03T13:15:53.850Z,98536.95
2023-01-03T13:18:22.099Z,98538.17
2023-01-03T13:20:54.352Z,98535.07
2023-01-03T13:23:41.377Z,98539.45
2023-01-03T13:26:24.822Z,98542.75
2023-01-03T13:29:48.179Z,98546.30
2023-01-03T13:32:22.446Z,98553.76
2023-01-03T13:34:56.809Z,98557.11
2023-01-03T13:37:43.454Z,98559.29
2023-01-03T13:40:39.250Z,98563.34
2023-01-03T13:43:23.524Z,98565.42
2023-01-03T13:45:54.709Z,98567.54
2023-01-03T13:48:26.567Z,98572.94
2023-01-03T13:51:06.286Z,98570.21
2023-01-03T13:53:52.697Z,98577.91
2023-01-03T13:56:25.518Z,98579.02
2023-01-03T13:59:03.519Z,98578.90
2023-01-03T14:01:50.116Z,98582.70
2023-01-03T14:04:36.925Z,98583.90
2023-01-03T14:07:08.170Z,98582.82
2023-01-03T14:09:49.049Z,98578.78
2023-01-03T14:12:39.123Z,98577.14
2023-01-03T14:15:26.042Z,98581.40
2023-01-03T14:17:58.807Z,98585.46
2023-01-03T14:20:34.424Z,98589.89
2023-01-03T14:23:31.755Z,98590.19
2023-01-03T14:26:06.963Z,98592.30
2023-01-03T14:28:35.095Z,98590.77
2023-01-03T14:31:05.854Z,98589.73
2023-01-03T14:33:41.941Z,98595.77
2023-01-03T14:36:15.244Z,98592.89
2023-01-03T14:39:02.284Z,98593.55
2023-01-03T14:41:37.594Z,98597.86
2023-01-03T14:44:12.003Z,98597.61
2023-01-03T14:46:48.423Z,98597.13
2023-01-03T14:49:41.837Z,98596.52
2023-01-03T14:52:35.455Z,98599.19
2023-01-03T14:55:14.601Z,98598.95
2023-01-03T14:57:46.127Z,98603.04
2023-01-03T15:00:26.757Z,98600.15
2023-01-03T15:03:02.425Z,98601.79
2023-01-03T15:05:40.974Z,98604.05
2023-01-03T15:08:10.930Z,98606.86
2023-01-03T15:10:52.499Z,98609.17
2023-01-03T15:13:55.596Z,98613.52
2023-01-03T15:16:34.872Z,98616.81
2023-01-03T15:19:21.214Z,98617.35
2023-01-03T15:21:51.098Z,98617.89
2023-01-03T15:24:23.319Z,98619.27
2023-01-03T15:26:57.417Z,98618.77
2023-01-03T15:29:45.524Z,98618.11
2023-01-03T15:32:22.355Z,98618.86
2023-01-03T15:34:52.011Z,98620.86
2023-01-03T15:37:24.455Z,98619.35
2023-01-03T15:40:01.346Z,98622.38
2023-01-03T15:43:18.183Z,98625.57
2023-01-03T15:46:21.770Z,98627.55
2023-01-03T15:49:01.222Z,98629.77
2023-01-03T15:51:29.711Z,98630.70
2023-01-03T15:53:58.475Z,98633.32
2023-01-03T15:56:35.570Z,98630.58
2023-01-03T15:59:09.790Z,98628.53
2023-01-03T16:01:38.702Z,98623.10
2023-01-03T16:04:07.504Z,98629.55
2023-01-03T16:06:36.877Z,98631.45
2023-01-03T16:09:07.165Z,98634.91
2023-01-03T16:11:35.729Z,98635.23
2023-01-03T16:14:11.746Z,98636.64
2023-01-03T16:16:44.035Z,98634.33
2023-01-03T16:19:20.783Z,98634.67
2023-01-03T16:22:24.441Z,98633.64
2023-01-03T16:24:41.339Z,98633.77
2023-01-03T16:27:15.750Z,98635.30
2023-01-03T16:29:43.914Z,98633.63
2023-01-03T16:32:31.253Z,98634.59
2023-01-03T16:35:03.173Z,98637.82
2023-01-03T16:37:32.241Z,98635.83
2023-01-03T16:40:00.993Z,98635.07
2023-01-03T16:42:29.226Z,98636.36
2023-01-03T16:44:58.069Z,98636.73
2023-01-03T16:47:31.412Z,98642.34
2023-01-03T16:50:07.554Z,98642.00
2023-01-03T16:52:41.197Z,98639.77
2023-01-03T16:55:19.210Z,98640.97
2023-01-03T16:57:53.843Z,98640.09
2023-01-03T17:00:26.329Z,98637.27
2023-01-03T17:02:56.518Z,98639.98
2023-01-03T17:05:27.325Z,98641.67
2023-01-03T17:08:06.027Z,98646.44
2023-01-03T17:10:50.940Z,98643.60
2023-01-03T17:13:34.596Z,98642.67
2023-01-03T17:16:04.522Z,98644.92
2023-01-03T17:18:40.531Z,98646.02
2023-01-03T17:21:34.232Z,98647.14
2023-01-03T17:24:16.819Z,98650.87
2023-01-03T17:26:45.372Z,98650.25
2023-01-03T17:29:19.329Z,98648.42
2023-01-03T17:31:47.485Z,98645.41
2023-01-03T17:34:26.958Z,98641.14
2023-01-03T17:36:56.169Z,98642.93
2023-01-03T17:39:25.087Z,98640.55
2023-01-03T17:42:12.696Z,98637.11
2023-01-03T17:45:05.244Z,98641.30
2023-01-03T17:47:56.612Z,98642.52
2023-01-03T17:50:25.615Z,98644.05
2023-01-03T17:52:56.372Z,98646.96
2023-01-03T17:55:28.701Z,98647.23
2023-01-03T17:58:01.996Z,98651.33
2023-01-03T18:00:31.487Z,98652.36
2023-01-03T18:03:02.912Z,98651.70
2023-01-03T18:05:32.721Z,98654.17
2023-01-03T18:08:03.034Z,98658.58
2023-01-03T18:10:46.410Z,98655.32
2023-01-03T18:13:28.916Z,98655.21
2023-01-03T18:15:58.164Z,98658.40
2023-01-03T18:18:28.129Z,98659.50
2023-01-03T18:20:57.632Z,98659.56
2023-01-03T18:23:28.815Z,98657.54
2023-01-03T18:26:00.121Z,98652.89
2023-01-03T18:28:29.111Z,98652.58
2023-01-03T18:30:57.771Z,98650.80
2023-01-03T18:33:26.671Z,98654.27
2023-01-03T18:35:54.882Z,98652.71
2023-01-03T18:38:22.838Z,98653.41
2023-01-03T18:40:56.055Z,98655.84
2023-01-03T18:43:28.949Z,98657.08
2023-01-03T18:45:57.190Z,98662.33
2023-01-03T18:48:25.688Z,98665.30
2023-01-03T18:50:59.082Z,98667.59
2023-01-03T18:53:31.694Z,98668.32
2023-01-03T18:56:00.794Z,98666.96
2023-01-03T18:58:39.166Z,98664.72
2023-01-03T19:01:07.423Z,98664.92
2023-01-03T19:03:36.163Z,98665.65
2023-01-03T19:06:16.187Z,98667.59
2023-01-03T19:08:45.475Z,98666.16
2023-01-03T19:11:22.347Z,98666.49
2023-01-03T19:13:55.089Z,98668.58
2023-01-03T19:16:27.168Z,98669.23
2023-01-03T19:18:56.129Z,98672.36
2023-01-03T19:21:30.762Z,98673.04
2023-01-03T19:24:08.353Z,98677.19
2023-01-03T19:26:44.753Z,98674.77
2023-01-03T19:29:25.403Z,98676.16
2023-01-03T19:31:56.401Z,98674.45
2023-01-03T19:34:26.965Z,98675.35
2023-01-03T19:36:55.321Z,98676.61
2023-01-03T19:39:25.819Z,98674.89
2023-01-03T19:42:15.587Z,98676.84
2023-01-03T19:44:44.073Z,98676.83
2023-01-03T19:47:15.163Z,98677.61
2023-01-03T19:49:44.970Z,98674.33
2023-01-03T19:52:13.870Z,98677.13
2023-01-03T19:54:42.264Z,98678.86
2023-01-03T19:57:22.394Z,98682.16
2023-01-03T19:59:56.829Z,98681.30
2023-01-03T20:02:25.996Z,98674.17
2023-01-03T20:04:55.042Z,98675.21
2023-01-03T20:07:24.206Z,98681.64
2023-01-03T20:09:52.263Z,98680.40
2023-01-03T20:12:25.499Z,98680.77
2023-01-03T20:15:00.052Z,98680.80
2023-01-03T20:17:32.804Z,98678.38
2023-01-03T20:20:01.041Z,98683.95
2023-01-03T20:25:27.459Z,98687.69
2023-01-03T20:27:56.897Z,98686.52
2023-01-03T20:30:26.960Z,98684.46
2023-01-03T20:32:55.571Z,98677.52
2023-01-03T20:38:17.388Z,98666.94
2023-01-03T20:40:45.485Z,98667.46
2023-01-03T20:43:14.503Z,98671.27
2023-01-03T20:45:43.004Z,98669.86
2023-01-03T20:48:25.570Z,98667.77
2023-01-03T20:50:55.298Z,98665.85
2023-01-03T20:53:27.641Z,98664.45
2023-01-03T20:55:55.919Z,98669.30
2023-01-03T20:58:25.433Z,98664.61
2023-01-03T21:01:01.991Z,98662.16
2023-01-03T21:03:34.786Z,98659.05
2023-01-03T21:06:13.376Z,98660.83
2023-01-03T21:08:57.030Z,98658.95
2023-01-03T21:11:31.436Z,98656.53
2023-01-03T21:14:01.719Z,98652.19
2023-01-03T21:16:33.212Z,98656.39
2023-01-03T21:19:23.315Z,98652.40
2023-01-03T21:21:54.334Z,98646.52
2023-01-03T21:24:24.249Z,98646.36
2023-01-03T21:26:52.681Z,98645.15
2023-01-03T21:29:22.175Z,98642.01
2023-01-03T21:31:50.635Z,98644.79
2023-01-03T21:34:21.118Z,98643.20
2023-01-03T21:36:49.282Z,98651.14
2023-01-03T21:39:17.487Z,98654.85
2023-01-03T21:42:05.392Z,98662.09
2023-01-03T21:44:33.340Z,98672.64
2023-01-03T21:47:01.519Z,98673.96
2023-01-03T21:49:30.024Z,98673.88
2023-01-03T21:51:58.420Z,98675.39
2023-01-03T21:54:26.687Z,98673.98
2023-01-03T21:56:54.988Z,98669.86
2023-01-03T21:59:23.206Z,98665.90
2023-01-03T22:02:10.051Z,98663.89
2023-01-03T22:04:38.283Z,98661.34
2023-01-03T22:07:06.946Z,98659.13
2023-01-03T22:09:53.603Z,98655.39
2023-01-03T22:12:22.071Z,98653.71
2023-01-03T22:14:50.259Z,98651.66
2023-01-03T22:17:18.649Z,98649.27
2023-01-03T22:19:46.850Z,98651.72
2023-01-03T22:22:15.202Z,98653.59
2023-01-03T22:24:43.613Z,98658.27
2023-01-03T22:27:11.942Z,98664.66
2023-01-03T22:29:40.063Z,98665.83
2023-01-03T22:32:10.288Z,98669.64
2023-01-03T22:34:39.369Z,98670.52
2023-01-03T22:37:07.561Z,98668.05
2023-01-03T22:39:35.528Z,98670.46
2023-01-03T22:42:03.788Z,98670.66
2023-01-03T22:44:31.761Z,98668.75
2023-01-03T22:47:00.060Z,98676.27
2023-01-03T22:49:28.227Z,98673.16
2023-01-03T22:51:56.493Z,98672.48
2023-01-03T22:54:24.583Z,98670.07
2023-01-03T22:56:56.375Z,98673.08
2023-01-03T22:59:25.273Z,98669.12
2023-01-03T23:01:53.937Z,98664.98
2023-01-03T23:04:24.533Z,98662.20
2023-01-03T23:06:54.037Z,98661.70
2023-01-03T23:09:23.118Z,98665.37
2023-01-03T23:12:09.975Z,98660.71
2023-01-03T23:14:38.316Z,98657.19
2023-01-03T23:17:25.195Z,98655.94
2023-01-03T23:19:53.236Z,98656.95
2023-01-03T23:22:21.383Z,98656.23
2023-01-03T23:24:49.679Z,98661.60
2023-01-03T23:27:17.907Z,98660.35
2023-01-03T23:29:46.124Z,98659.11
2023-01-03T23:32:14.075Z,98660.13
2023-01-03T23:34:41.998Z,98657.33
2023-01-03T23:37:09.983Z,98652.06
2023-01-03T23:39:37.983Z,98647.71
2023-01-03T23:42:06.061Z,98647.19
2023-01-03T23:44:34.142Z,98643.17
2023-01-03T23:47:07.642Z,98644.21
2023-01-03T23:49:39.310Z,98647.35
2023-01-03T23:52:07.596Z,98646.50
2023-01-03T23:54:35.672Z,98644.45
2023-01-03T23:57:05.150Z,98647.08
2023-01-03T23:59:33.184Z,98641.91
